Pelagia — PGRQ — position and weather

sailwx.info

Track history (hours):
 
Tides and Currents Weather Stations Pressure Air Temp Water Temp Dewpoint Dewpoint Depression Visibility Wind Speed Wind Dir Waves Ship Positions

Oceanographic research ship Pelagia (Netherlands)

Detailed information on ship capabilities available from University of Delaware's Ocean Information Center and ARCUS's ALIAS (Arctic Logistics Information and Support) project.

Last reported at 2018-Dec-13 11:00 UTC. Time now 2018-Dec-13 12:57 UTC.
Position S 22°42' E 062°48'.

Length 66 m; beam 13 m.

Type: Dredging. MMSI: 244925000.

Barometer 1018.4 mb

Date/timePositionNaut miles runAvg speedWind from/ knotsBaromVisibWave heightAir tempDewpointWater temp
2018-Dec-13 11:00S 22°42' E 062°48'6 5.5 1018.4
2018-Dec-13 10:00S 22°42' E 062°54'8 8.2 1018.8
2018-Dec-13 09:00S 22°48' E 063°00'1111.1 1019.0
2018-Dec-13 08:00S 22°48' E 063°12'2010.2 1019.4
2018-Dec-13 06:00S 23°00' E 063°30'18 8.8 1020.1
2018-Dec-13 04:00S 23°06' E 063°48'18 8.8 1019.9
2018-Dec-13 02:00S 23°12' E 064°06'18 8.8 1020.3
2018-Dec-13 00:00S 23°18' E 064°24'1312.5 1019.6
2018-Dec-12 23:00S 23°24' E 064°36'6 5.5 1019.4
2018-Dec-12 22:00S 23°24' E 064°42'1312.5 1019.6
2018-Dec-12 21:00S 23°30' E 064°54'8 8.1 1020.0
2018-Dec-12 20:00S 23°36' E 065°00'1111.0 1020.5
2018-Dec-12 19:00S 23°36' E 065°12'1312.5 1021.3
2018-Dec-12 18:00S 23°42' E 065°24'8 8.1 1022.1
2018-Dec-12 17:00S 23°48' E 065°30'1111.0 1021.9
2018-Dec-12 16:00S 23°48' E 065°42'8 8.1 1021.4
2018-Dec-12 15:00S 23°54' E 065°48'1312.5 1020.7
2018-Dec-12 14:00S 24°00' E 066°00'17 8.7 1020.0
2018-Dec-12 12:00S 24°06' E 066°18'1111.0 1019.1
2018-Dec-12 11:00S 24°06' E 066°30'8 8.1 1018.6
2018-Dec-12 10:00S 24°12' E 066°36'1212.5 1018.6
2018-Dec-12 09:00S 24°18' E 066°48'5 5.5 1018.9
2018-Dec-12 08:00S 24°18' E 066°54'2311.3 1019.3
2018-Dec-12 06:00S 24°24' E 067°18'17 8.7 1019.9
2018-Dec-12 04:00S 24°30' E 067°36'8 8.1 1020.1
2018-Dec-12 03:00S 24°36' E 067°42'1212.4 1020.3
2018-Dec-12 02:00S 24°42' E 067°54'17 8.7 1020.2
2018-Dec-12 00:00S 24°48' E 068°12'5 5.4 1019.6
2018-Dec-11 23:00S 24°48' E 068°18'8 8.1 1019.3
2018-Dec-11 22:00S 24°54' E 068°24'1212.4 1019.0
2018-Dec-11 21:00S 25°00' E 068°36'5 5.4 1019.5
2018-Dec-11 20:00S 25°00' E 068°42'1212.4 1019.8
2018-Dec-11 19:00S 25°06' E 068°54'17 8.7 1020.2
2018-Dec-11 17:00S 25°12' E 069°12'17 8.7 1020.7
2018-Dec-11 15:00S 25°18' E 069°30'2512.4 1020.1
2018-Dec-11 13:00S 25°30' E 069°54'0 0.0 1019.2
2018-Dec-11 12:00S 25°30' E 069°54'0 0.0 1018.8
2018-Dec-11 10:00S 25°30' E 069°54'0 0.0 1019.0
2018-Dec-11 09:00S 25°30' E 069°54'0 0.0 1019.6
2018-Dec-11 08:00S 25°30' E 069°54'0 0.0 1020.0
2018-Dec-11 06:00S 25°30' E 069°54'0 0.0 1020.9
2018-Dec-11 05:00S 25°30' E 069°54'0 0.0 1020.7
2018-Dec-11 03:00S 25°30' E 069°54'0 0.0 1021.0
2018-Dec-11 02:00S 25°30' E 069°54'0 0.0 1020.9
2018-Dec-11 01:00S 25°30' E 069°54'6 6.0 1020.7
2018-Dec-11 00:00S 25°24' E 069°54'0 0.0 1020.1
2018-Dec-10 23:00S 25°24' E 069°54'0 0.0 1020.0
2018-Dec-10 22:00S 25°24' E 069°54'8 8.1 1020.1
2018-Dec-10 21:00S 25°30' E 070°00'5 5.4 1020.6
2018-Dec-10 20:00S 25°30' E 069°54'0 0.0 1021.4
2018-Dec-10 17:00S 25°30' E 069°54'0 0.0 1022.8
2018-Dec-10 15:00S 25°30' E 069°54'0 0.0 1022.0
2018-Dec-10 14:00S 25°30' E 069°54'0 0.0 1021.4
2018-Dec-10 13:00S 25°30' E 069°54'0 0.0 1020.6
2018-Dec-10 12:00S 25°30' E 069°54'0 0.0 1020.6
2018-Dec-10 10:00S 25°30' E 069°54'0 0.0 1021.0
2018-Dec-10 07:00S 25°30' E 069°54'0 0.0 1021.8
2018-Dec-10 06:00S 25°30' E 069°54'0 0.0 1022.3
2018-Dec-10 05:00S 25°30' E 069°54'6 1.5 1022.3
2018-Dec-10 01:00S 25°24' E 069°54'0 0.0 1022.2
2018-Dec-10 00:00S 25°24' E 069°54'0 0.0 1021.9
2018-Dec-09 22:00S 25°24' E 069°54'0 0.0 1021.9
2018-Dec-09 21:00S 25°24' E 069°54'6 6.0 1022.2
2018-Dec-09 20:00S 25°30' E 069°54'0 0.0 1022.8
2018-Dec-09 19:00S 25°30' E 069°54'0 0.0 1023.6
2018-Dec-09 18:00S 25°30' E 069°54'0 0.0 1023.8
2018-Dec-09 15:00S 25°30' E 069°54'0 0.0 1022.7
2018-Dec-09 14:00S 25°30' E 069°54'0 0.0 1022.3
2018-Dec-09 12:00S 25°30' E 069°54'0 0.0 1021.5
2018-Dec-09 10:00S 25°30' E 069°54'0 0.0 1022.0
2018-Dec-09 06:00S 25°30' E 069°54'6 1.5 1023.7
2018-Dec-09 02:00S 25°24' E 069°54'0 0.0 1023.2
2018-Dec-08 22:00S 25°24' E 069°54'6 2.0 1022.6
2018-Dec-08 19:00S 25°30' E 069°54'0 0.0 1023.3
2018-Dec-08 16:00S 25°30' E 069°54'0 0.0 1023.9
2018-Dec-08 15:00S 25°30' E 069°54'0 0.0 1023.2
2018-Dec-08 14:00S 25°30' E 069°54'0 0.0 1022.3
2018-Dec-08 13:00S 25°30' E 069°54'0 0.0 1022.0
2018-Dec-08 11:00S 25°30' E 069°54'0 0.0 1021.0
2018-Dec-08 10:00S 25°30' E 069°54'0 0.0 1021.2
2018-Dec-08 08:00S 25°30' E 069°54'6 0.8 1022.0
2018-Dec-08 00:00S 25°24' E 069°54'0 0.0 1020.7
2018-Dec-07 22:00S 25°24' E 069°54'6 3.0 1021.2
2018-Dec-07 20:00S 25°30' E 069°54'0 0.0 1021.7
2018-Dec-07 19:00S 25°30' E 069°54'0 0.0 1022.2
2018-Dec-07 18:00S 25°30' E 069°54'0 0.0 1022.8
2018-Dec-07 17:00S 25°30' E 069°54'0 0.0 1023.1
2018-Dec-07 16:00S 25°30' E 069°54'6 6.0 1022.7
2018-Dec-07 15:00S 25°24' E 069°54'0 0.0 1022.0
2018-Dec-07 13:00S 25°24' E 069°54'0 0.0 1020.5
2018-Dec-07 12:00S 25°24' E 069°54'6 2.0 1020.0
2018-Dec-07 09:00S 25°30' E 069°54'0 0.0 1020.1
2018-Dec-07 07:00S 25°30' E 069°54'6 1.2 1020.6
2018-Dec-07 02:00S 25°24' E 069°54'0 0.0 1020.8
2018-Dec-07 01:00S 25°24' E 069°54'6 6.0 1020.5
2018-Dec-07 00:00S 25°30' E 069°54'0 0.0 1019.6
2018-Dec-06 23:00S 25°30' E 069°54'0 0.0 1019.7
2018-Dec-06 20:00S 25°30' E 069°54'0 0.0 1020.5
2018-Dec-06 14:00S 25°30' E 069°54'0 0.0 1019.9
2018-Dec-06 10:00S 25°30' E 069°54'0 0.0 1018.5
2018-Dec-06 09:00S 25°30' E 069°54'0 0.0 1018.6
2018-Dec-06 08:00S 25°30' E 069°54'0 0.0 1019.4
2018-Dec-06 06:00S 25°30' E 069°54'8 2.7 1019.9
2018-Dec-06 03:00S 25°24' E 069°48'0 0.0 1019.3
2018-Dec-05 22:00S 25°24' E 069°48'0 0.0 1018.9
2018-Dec-05 21:00S 25°24' E 069°48'6 3.0 1018.9
2018-Dec-05 19:00S 25°30' E 069°48'0 0.0 1020.4
2018-Dec-05 18:00S 25°30' E 069°48'8 1.3 1021.0
2018-Dec-05 12:00S 25°36' E 069°54'0 0.0 1018.8
2018-Dec-05 10:00S 25°36' E 069°54'8 8.1 1018.9
2018-Dec-05 09:00S 25°42' E 069°48'13 6.6 1019.0
2018-Dec-05 07:00S 25°30' E 069°42'6 3.0 1019.6
2018-Dec-05 05:00S 25°24' E 069°42'5 5.4 1019.6
2018-Dec-05 04:00S 25°24' E 069°48'5 2.7 1020.5
2018-Dec-05 02:00S 25°24' E 069°54'0 0.0 1019.7
2018-Dec-05 01:00S 25°24' E 069°54'0 0.0 1019.2
2018-Dec-05 00:00S 25°24' E 069°54'0 0.0 1018.9
2018-Dec-04 23:00S 25°24' E 069°54'0 0.0 1018.6
2018-Dec-04 22:00S 25°24' E 069°54'0 0.0 1018.5
2018-Dec-04 21:00S 25°24' E 069°54'6 6.0 1018.6
2018-Dec-04 20:00S 25°30' E 069°54'0 0.0 1019.0
2018-Dec-04 19:00S 25°30' E 069°54'0 0.0 1019.7
2018-Dec-04 18:00S 25°30' E 069°54'0 0.0 1020.1
2018-Dec-04 15:00S 25°30' E 069°54'0 0.0 1019.0
2018-Dec-04 14:00S 25°30' E 069°54'0 0.0 1018.4
2018-Dec-04 13:00S 25°30' E 069°54'0 0.0 1017.2
2018-Dec-04 11:00S 25°30' E 069°54'0 0.0 1016.4
2018-Dec-04 07:00S 25°30' E 069°54'0 0.0 1017.2
2018-Dec-04 06:00S 25°30' E 069°54'0 0.0 1017.1
2018-Dec-04 05:00S 25°30' E 069°54'0 0.0 1017.1
2018-Dec-04 02:00S 25°30' E 069°54'0 0.0 1016.7
2018-Dec-04 01:00S 25°30' E 069°54'0 0.0 1015.9
2018-Dec-04 00:00S 25°30' E 069°54'0 0.0 1015.1
2018-Dec-03 23:00S 25°30' E 069°54'6 6.0 1014.6
2018-Dec-03 22:00S 25°24' E 069°54'0 0.0 1014.5
2018-Dec-03 21:00S 25°24' E 069°54'0 0.0 1014.6
2018-Dec-03 20:00S 25°24' E 069°54'6 6.0 1014.7
2018-Dec-03 19:00S 25°30' E 069°54'8 2.7 1015.3
2018-Dec-03 16:00S 25°24' E 070°00'6 6.0 1015.0
2018-Dec-03 15:00S 25°18' E 070°00'0 0.0 1014.4
2018-Dec-03 14:00S 25°18' E 070°00'   1013.7
Track history (hours):
 
Tides and Currents Weather Stations Pressure Air Temp Water Temp Dewpoint Dewpoint Depression Visibility Wind Speed Wind Dir Waves Ship Positions

Oceanographic research ship Pelagia (Netherlands)

Detailed information on ship capabilities available from University of Delaware's Ocean Information Center and ARCUS's ALIAS (Arctic Logistics Information and Support) project.

Last reported at 2018-Dec-13 11:00 UTC. Time now 2018-Dec-13 12:57 UTC.
Position S 22°42' E 062°48'.

Length 66 m; beam 13 m.

Type: Dredging. MMSI: 244925000.

Barometer 1018.4 mb

Date/timePositionNaut miles runAvg speedWind from/ knotsBaromVisibWave heightAir tempDewpointWater temp
2018-Dec-13 11:00S 22°42' E 062°48'6 5.5 1018.4
2018-Dec-13 10:00S 22°42' E 062°54'8 8.2 1018.8
2018-Dec-13 09:00S 22°48' E 063°00'1111.1 1019.0
2018-Dec-13 08:00S 22°48' E 063°12'2010.2 1019.4
2018-Dec-13 06:00S 23°00' E 063°30'18 8.8 1020.1
2018-Dec-13 04:00S 23°06' E 063°48'18 8.8 1019.9
2018-Dec-13 02:00S 23°12' E 064°06'18 8.8 1020.3
2018-Dec-13 00:00S 23°18' E 064°24'1312.5 1019.6
2018-Dec-12 23:00S 23°24' E 064°36'6 5.5 1019.4
2018-Dec-12 22:00S 23°24' E 064°42'1312.5 1019.6
2018-Dec-12 21:00S 23°30' E 064°54'8 8.1 1020.0
2018-Dec-12 20:00S 23°36' E 065°00'1111.0 1020.5
2018-Dec-12 19:00S 23°36' E 065°12'1312.5 1021.3
2018-Dec-12 18:00S 23°42' E 065°24'8 8.1 1022.1
2018-Dec-12 17:00S 23°48' E 065°30'1111.0 1021.9
2018-Dec-12 16:00S 23°48' E 065°42'8 8.1 1021.4
2018-Dec-12 15:00S 23°54' E 065°48'1312.5 1020.7
2018-Dec-12 14:00S 24°00' E 066°00'17 8.7 1020.0
2018-Dec-12 12:00S 24°06' E 066°18'1111.0 1019.1
2018-Dec-12 11:00S 24°06' E 066°30'8 8.1 1018.6
2018-Dec-12 10:00S 24°12' E 066°36'1212.5 1018.6
2018-Dec-12 09:00S 24°18' E 066°48'5 5.5 1018.9
2018-Dec-12 08:00S 24°18' E 066°54'2311.3 1019.3
2018-Dec-12 06:00S 24°24' E 067°18'17 8.7 1019.9
2018-Dec-12 04:00S 24°30' E 067°36'8 8.1 1020.1
2018-Dec-12 03:00S 24°36' E 067°42'1212.4 1020.3
2018-Dec-12 02:00S 24°42' E 067°54'17 8.7 1020.2
2018-Dec-12 00:00S 24°48' E 068°12'5 5.4 1019.6
2018-Dec-11 23:00S 24°48' E 068°18'8 8.1 1019.3
2018-Dec-11 22:00S 24°54' E 068°24'1212.4 1019.0
2018-Dec-11 21:00S 25°00' E 068°36'5 5.4 1019.5
2018-Dec-11 20:00S 25°00' E 068°42'1212.4 1019.8
2018-Dec-11 19:00S 25°06' E 068°54'17 8.7 1020.2
2018-Dec-11 17:00S 25°12' E 069°12'17 8.7 1020.7
2018-Dec-11 15:00S 25°18' E 069°30'2512.4 1020.1
2018-Dec-11 13:00S 25°30' E 069°54'0 0.0 1019.2
2018-Dec-11 12:00S 25°30' E 069°54'0 0.0 1018.8
2018-Dec-11 10:00S 25°30' E 069°54'0 0.0 1019.0
2018-Dec-11 09:00S 25°30' E 069°54'0 0.0 1019.6
2018-Dec-11 08:00S 25°30' E 069°54'0 0.0 1020.0
2018-Dec-11 06:00S 25°30' E 069°54'0 0.0 1020.9
2018-Dec-11 05:00S 25°30' E 069°54'0 0.0 1020.7
2018-Dec-11 03:00S 25°30' E 069°54'0 0.0 1021.0
2018-Dec-11 02:00S 25°30' E 069°54'0 0.0 1020.9
2018-Dec-11 01:00S 25°30' E 069°54'6 6.0 1020.7
2018-Dec-11 00:00S 25°24' E 069°54'0 0.0 1020.1
2018-Dec-10 23:00S 25°24' E 069°54'0 0.0 1020.0
2018-Dec-10 22:00S 25°24' E 069°54'8 8.1 1020.1
2018-Dec-10 21:00S 25°30' E 070°00'5 5.4 1020.6
2018-Dec-10 20:00S 25°30' E 069°54'0 0.0 1021.4
2018-Dec-10 17:00S 25°30' E 069°54'0 0.0 1022.8
2018-Dec-10 15:00S 25°30' E 069°54'0 0.0 1022.0
2018-Dec-10 14:00S 25°30' E 069°54'0 0.0 1021.4
2018-Dec-10 13:00S 25°30' E 069°54'0 0.0 1020.6
2018-Dec-10 12:00S 25°30' E 069°54'0 0.0 1020.6
2018-Dec-10 10:00S 25°30' E 069°54'0 0.0 1021.0
2018-Dec-10 07:00S 25°30' E 069°54'0 0.0 1021.8
2018-Dec-10 06:00S 25°30' E 069°54'0 0.0 1022.3
2018-Dec-10 05:00S 25°30' E 069°54'6 1.5 1022.3
2018-Dec-10 01:00S 25°24' E 069°54'0 0.0 1022.2
2018-Dec-10 00:00S 25°24' E 069°54'0 0.0 1021.9
2018-Dec-09 22:00S 25°24' E 069°54'0 0.0 1021.9
2018-Dec-09 21:00S 25°24' E 069°54'6 6.0 1022.2
2018-Dec-09 20:00S 25°30' E 069°54'0 0.0 1022.8
2018-Dec-09 19:00S 25°30' E 069°54'0 0.0 1023.6
2018-Dec-09 18:00S 25°30' E 069°54'0 0.0 1023.8
2018-Dec-09 15:00S 25°30' E 069°54'0 0.0 1022.7
2018-Dec-09 14:00S 25°30' E 069°54'0 0.0 1022.3
2018-Dec-09 12:00S 25°30' E 069°54'0 0.0 1021.5
2018-Dec-09 10:00S 25°30' E 069°54'0 0.0 1022.0
2018-Dec-09 06:00S 25°30' E 069°54'6 1.5 1023.7
2018-Dec-09 02:00S 25°24' E 069°54'0 0.0 1023.2
2018-Dec-08 22:00S 25°24' E 069°54'6 2.0 1022.6
2018-Dec-08 19:00S 25°30' E 069°54'0 0.0 1023.3
2018-Dec-08 16:00S 25°30' E 069°54'0 0.0 1023.9
2018-Dec-08 15:00S 25°30' E 069°54'0 0.0 1023.2
2018-Dec-08 14:00S 25°30' E 069°54'0 0.0 1022.3
2018-Dec-08 13:00S 25°30' E 069°54'0 0.0 1022.0
2018-Dec-08 11:00S 25°30' E 069°54'0 0.0 1021.0
2018-Dec-08 10:00S 25°30' E 069°54'0 0.0 1021.2
2018-Dec-08 08:00S 25°30' E 069°54'6 0.8 1022.0
2018-Dec-08 00:00S 25°24' E 069°54'0 0.0 1020.7
2018-Dec-07 22:00S 25°24' E 069°54'6 3.0 1021.2
2018-Dec-07 20:00S 25°30' E 069°54'0 0.0 1021.7
2018-Dec-07 19:00S 25°30' E 069°54'0 0.0 1022.2
2018-Dec-07 18:00S 25°30' E 069°54'0 0.0 1022.8
2018-Dec-07 17:00S 25°30' E 069°54'0 0.0 1023.1
2018-Dec-07 16:00S 25°30' E 069°54'6 6.0 1022.7
2018-Dec-07 15:00S 25°24' E 069°54'0 0.0 1022.0
2018-Dec-07 13:00S 25°24' E 069°54'0 0.0 1020.5
2018-Dec-07 12:00S 25°24' E 069°54'6 2.0 1020.0
2018-Dec-07 09:00S 25°30' E 069°54'0 0.0 1020.1
2018-Dec-07 07:00S 25°30' E 069°54'6 1.2 1020.6
2018-Dec-07 02:00S 25°24' E 069°54'0 0.0 1020.8
2018-Dec-07 01:00S 25°24' E 069°54'6 6.0 1020.5
2018-Dec-07 00:00S 25°30' E 069°54'0 0.0 1019.6
2018-Dec-06 23:00S 25°30' E 069°54'0 0.0 1019.7
2018-Dec-06 20:00S 25°30' E 069°54'0 0.0 1020.5
2018-Dec-06 14:00S 25°30' E 069°54'0 0.0 1019.9
2018-Dec-06 10:00S 25°30' E 069°54'0 0.0 1018.5
2018-Dec-06 09:00S 25°30' E 069°54'0 0.0 1018.6
2018-Dec-06 08:00S 25°30' E 069°54'0 0.0 1019.4
2018-Dec-06 06:00S 25°30' E 069°54'8 2.7 1019.9
2018-Dec-06 03:00S 25°24' E 069°48'0 0.0 1019.3
2018-Dec-05 22:00S 25°24' E 069°48'0 0.0 1018.9
2018-Dec-05 21:00S 25°24' E 069°48'6 3.0 1018.9
2018-Dec-05 19:00S 25°30' E 069°48'0 0.0 1020.4
2018-Dec-05 18:00S 25°30' E 069°48'8 1.3 1021.0
2018-Dec-05 12:00S 25°36' E 069°54'0 0.0 1018.8
2018-Dec-05 10:00S 25°36' E 069°54'8 8.1 1018.9
2018-Dec-05 09:00S 25°42' E 069°48'13 6.6 1019.0
2018-Dec-05 07:00S 25°30' E 069°42'6 3.0 1019.6
2018-Dec-05 05:00S 25°24' E 069°42'5 5.4 1019.6
2018-Dec-05 04:00S 25°24' E 069°48'5 2.7 1020.5
2018-Dec-05 02:00S 25°24' E 069°54'0 0.0 1019.7
2018-Dec-05 01:00S 25°24' E 069°54'0 0.0 1019.2
2018-Dec-05 00:00S 25°24' E 069°54'0 0.0 1018.9
2018-Dec-04 23:00S 25°24' E 069°54'0 0.0 1018.6
2018-Dec-04 22:00S 25°24' E 069°54'0 0.0 1018.5
2018-Dec-04 21:00S 25°24' E 069°54'6 6.0 1018.6
2018-Dec-04 20:00S 25°30' E 069°54'0 0.0 1019.0
2018-Dec-04 19:00S 25°30' E 069°54'0 0.0 1019.7
2018-Dec-04 18:00S 25°30' E 069°54'0 0.0 1020.1
2018-Dec-04 15:00S 25°30' E 069°54'0 0.0 1019.0
2018-Dec-04 14:00S 25°30' E 069°54'0 0.0 1018.4
2018-Dec-04 13:00S 25°30' E 069°54'0 0.0 1017.2
2018-Dec-04 11:00S 25°30' E 069°54'0 0.0 1016.4
2018-Dec-04 07:00S 25°30' E 069°54'0 0.0 1017.2
2018-Dec-04 06:00S 25°30' E 069°54'0 0.0 1017.1
2018-Dec-04 05:00S 25°30' E 069°54'0 0.0 1017.1
2018-Dec-04 02:00S 25°30' E 069°54'0 0.0 1016.7
2018-Dec-04 01:00S 25°30' E 069°54'0 0.0 1015.9
2018-Dec-04 00:00S 25°30' E 069°54'0 0.0 1015.1
2018-Dec-03 23:00S 25°30' E 069°54'6 6.0 1014.6
2018-Dec-03 22:00S 25°24' E 069°54'0 0.0 1014.5
2018-Dec-03 21:00S 25°24' E 069°54'0 0.0 1014.6
2018-Dec-03 20:00S 25°24' E 069°54'6 6.0 1014.7
2018-Dec-03 19:00S 25°30' E 069°54'8 2.7 1015.3
2018-Dec-03 16:00S 25°24' E 070°00'6 6.0 1015.0
2018-Dec-03 15:00S 25°18' E 070°00'0 0.0 1014.4
2018-Dec-03 14:00S 25°18' E 070°00'   1013.7

Dump ship's entire track history